createdAt,value
2023-04-25T00:00:22.035Z,0.50
2023-04-25T00:01:22.020Z,0.50
2023-04-25T00:02:22.113Z,0.50
2023-04-25T00:03:22.363Z,0.38
2023-04-25T00:04:22.206Z,0.34
2023-04-25T00:05:22.117Z,0.34
2023-04-25T00:06:22.072Z,0.34
2023-04-25T00:07:22.089Z,0.34
2023-04-25T00:08:22.104Z,0.34
2023-04-25T00:09:22.131Z,0.36
2023-04-25T00:10:22.168Z,0.40
2023-04-25T00:11:22.185Z,0.44
2023-04-25T00:12:22.213Z,0.50
2023-04-25T00:13:22.257Z,0.50
2023-04-25T00:14:22.276Z,0.50
2023-04-25T00:15:22.333Z,0.50
2023-04-25T00:16:22.373Z,0.50
2023-04-25T00:17:22.384Z,0.51
2023-04-25T00:18:22.367Z,0.51
2023-04-25T00:19:22.370Z,0.50
2023-04-25T00:20:22.387Z,0.50
2023-04-25T00:21:22.408Z,0.50
2023-04-25T00:22:22.442Z,0.51
2023-04-25T00:23:22.455Z,0.50
2023-04-25T00:24:22.497Z,0.50
2023-04-25T00:25:22.528Z,0.51
2023-04-25T00:26:22.532Z,0.51
2023-04-25T00:27:22.559Z,0.50
2023-04-25T00:28:22.590Z,0.51
2023-04-25T00:29:22.637Z,0.50
2023-04-25T00:30:22.635Z,0.51
2023-04-25T00:31:22.699Z,0.51
2023-04-25T00:32:22.689Z,0.51
2023-04-25T00:33:22.725Z,0.51
2023-04-25T00:34:22.815Z,0.50
2023-04-25T00:35:22.789Z,0.50
2023-04-25T00:36:22.797Z,0.51
2023-04-25T00:37:22.834Z,0.50
2023-04-25T00:38:22.888Z,0.51
2023-04-25T00:39:22.876Z,0.50
2023-04-25T00:40:22.912Z,0.51
2023-04-25T00:41:22.939Z,0.50
2023-04-25T00:42:22.966Z,0.51
2023-04-25T00:43:22.998Z,0.50
2023-04-25T00:44:23.014Z,0.50
2023-04-25T00:45:23.119Z,0.51
2023-04-25T00:46:23.097Z,0.51
2023-04-25T00:47:23.133Z,0.51
2023-04-25T00:48:23.136Z,0.52
2023-04-25T00:49:23.154Z,0.51
2023-04-25T00:50:23.203Z,0.51
2023-04-25T00:51:23.201Z,0.51
2023-04-25T00:52:23.233Z,0.51
2023-04-25T00:53:23.262Z,0.51
2023-04-25T00:54:23.288Z,0.51
2023-04-25T00:55:23.323Z,0.51
2023-04-25T00:56:23.355Z,0.51
2023-04-25T00:57:23.380Z,0.51
2023-04-25T00:58:23.403Z,0.51
2023-04-25T00:59:23.439Z,0.51
2023-04-25T01:00:23.481Z,0.51
2023-04-25T01:01:23.649Z,0.52
2023-04-25T01:02:23.644Z,0.50
2023-04-25T01:03:23.931Z,0.52
2023-04-25T01:04:23.702Z,0.52
2023-04-25T01:05:23.614Z,0.51
2023-04-25T01:06:23.658Z,0.51
2023-04-25T01:07:23.681Z,0.51
2023-04-25T01:08:23.714Z,0.51
2023-04-25T01:09:23.749Z,0.52
2023-04-25T01:10:23.771Z,0.50
2023-04-25T01:11:23.808Z,0.52
2023-04-25T01:12:23.840Z,0.50
2023-04-25T01:13:23.854Z,0.51
2023-04-25T01:14:23.897Z,0.50
2023-04-25T01:15:23.951Z,0.50
2023-04-25T01:16:24.001Z,0.50
2023-04-25T01:17:24.052Z,0.50
2023-04-25T01:18:24.031Z,0.52
2023-04-25T01:19:24.069Z,0.50
2023-04-25T01:20:24.081Z,0.51
2023-04-25T01:21:24.109Z,0.51
2023-04-25T01:22:24.163Z,0.51
2023-04-25T01:23:24.175Z,0.51
2023-04-25T01:24:24.195Z,0.52
2023-04-25T01:25:24.251Z,0.51
2023-04-25T01:26:24.257Z,0.50
2023-04-25T01:27:24.285Z,0.51
2023-04-25T01:28:24.321Z,0.51
2023-04-25T01:29:24.341Z,0.51
2023-04-25T01:30:24.375Z,0.52
2023-04-25T01:31:24.419Z,0.51
2023-04-25T01:32:24.459Z,0.51
2023-04-25T01:33:24.490Z,0.51
2023-04-25T01:34:24.507Z,0.50
2023-04-25T01:35:24.529Z,0.52
2023-04-25T01:36:24.558Z,0.50
2023-04-25T01:37:24.591Z,0.51
2023-04-25T01:38:24.619Z,0.51
2023-04-25T01:39:24.657Z,0.51
2023-04-25T01:40:24.691Z,0.51
2023-04-25T01:41:24.723Z,0.52
2023-04-25T01:42:24.762Z,0.51
2023-04-25T01:43:24.787Z,0.50
2023-04-25T01:44:24.854Z,0.52
2023-04-25T01:45:24.882Z,0.51
2023-04-25T01:46:24.939Z,0.50
2023-04-25T01:47:25.044Z,0.50
2023-04-25T01:48:24.975Z,0.51
2023-04-25T01:49:25.007Z,0.50
2023-04-25T01:50:25.016Z,0.51
2023-04-25T01:51:25.055Z,0.51
2023-04-25T01:52:25.102Z,0.51
2023-04-25T01:53:25.127Z,0.50
2023-04-25T01:54:25.155Z,0.51
2023-04-25T01:55:25.186Z,0.51
2023-04-25T01:56:25.217Z,0.51
2023-04-25T01:57:25.252Z,0.50
2023-04-25T01:58:25.282Z,0.50
2023-04-25T01:59:25.321Z,0.51
2023-04-25T02:00:25.341Z,0.52
2023-04-25T02:01:25.445Z,0.52
2023-04-25T02:02:25.547Z,0.50
2023-04-25T02:03:25.677Z,0.51
2023-04-25T02:04:25.596Z,0.52
2023-04-25T02:05:25.542Z,0.52
2023-04-25T02:06:25.530Z,0.51
2023-04-25T02:07:25.564Z,0.52
2023-04-25T02:08:25.595Z,0.52
2023-04-25T02:09:25.619Z,0.50
2023-04-25T02:10:25.662Z,0.50
2023-04-25T02:11:25.686Z,0.51
2023-04-25T02:12:25.729Z,0.51
2023-04-25T02:13:25.765Z,0.51
2023-04-25T02:14:25.798Z,0.51
2023-04-25T02:15:25.830Z,0.52
2023-04-25T02:16:25.975Z,0.51
2023-04-25T02:17:25.913Z,0.51
2023-04-25T02:18:25.943Z,0.53
2023-04-25T02:19:25.980Z,0.51
2023-04-25T02:20:26.038Z,0.51
2023-04-25T02:21:26.062Z,0.50
2023-04-25T02:22:26.073Z,0.50
2023-04-25T02:23:26.114Z,0.50
2023-04-25T02:24:26.153Z,0.51
2023-04-25T02:25:26.181Z,0.52
2023-04-25T02:26:26.217Z,0.50
2023-04-25T02:27:26.250Z,0.51
2023-04-25T02:28:26.281Z,0.51
2023-04-25T02:29:26.322Z,0.52
2023-04-25T02:30:26.354Z,0.51
2023-04-25T02:31:26.417Z,0.52
2023-04-25T02:32:26.531Z,0.51
2023-04-25T02:33:26.458Z,0.52
2023-04-25T02:34:26.485Z,0.51
2023-04-25T02:35:26.521Z,0.50
2023-04-25T02:36:26.550Z,0.52
2023-04-25T02:37:26.604Z,0.51
2023-04-25T02:38:26.640Z,0.51
2023-04-25T02:39:26.645Z,0.51
2023-04-25T02:40:26.687Z,0.51
2023-04-25T02:41:26.718Z,0.50
2023-04-25T02:42:26.744Z,0.51
2023-04-25T02:43:26.793Z,0.51
2023-04-25T02:44:26.829Z,0.51
2023-04-25T02:45:26.866Z,0.51
2023-04-25T02:46:38.375Z,0.50
2023-04-25T02:47:27.055Z,0.50
2023-04-25T02:48:26.879Z,0.49
2023-04-25T02:49:26.871Z,0.46
2023-04-25T02:50:26.868Z,0.44
2023-04-25T02:51:26.860Z,0.46
2023-04-25T02:52:26.870Z,0.50
2023-04-25T02:53:26.880Z,0.50
2023-04-25T02:54:26.842Z,0.50
2023-04-25T02:55:28.377Z,0.52
2023-04-25T02:56:27.109Z,0.55
2023-04-25T02:57:27.097Z,0.56
2023-04-25T02:58:27.150Z,0.55
2023-04-25T02:59:27.190Z,0.55
2023-04-25T03:00:27.254Z,0.56
2023-04-25T03:01:27.393Z,0.56
2023-04-25T03:02:27.363Z,0.56
2023-04-25T03:03:27.422Z,0.56
2023-04-25T03:04:27.453Z,0.55
2023-04-25T03:05:27.430Z,0.55
2023-04-25T03:06:27.470Z,0.56
2023-04-25T03:07:27.561Z,0.57
2023-04-25T03:08:27.541Z,0.55
2023-04-25T03:09:27.614Z,0.55
2023-04-25T03:10:27.619Z,0.55
2023-04-25T03:11:27.664Z,0.55
2023-04-25T03:12:27.713Z,0.54
2023-04-25T03:13:27.742Z,0.55
2023-04-25T03:14:27.778Z,0.55
2023-04-25T03:15:27.819Z,0.55
2023-04-25T03:16:27.920Z,0.55
2023-04-25T03:17:27.933Z,0.55
2023-04-25T03:18:27.936Z,0.54
2023-04-25T03:19:27.996Z,0.54
2023-04-25T03:20:28.016Z,0.55
2023-04-25T03:21:28.068Z,0.55
2023-04-25T03:22:28.125Z,0.56
2023-04-25T03:23:28.150Z,0.55
2023-04-25T03:24:28.199Z,0.56
2023-04-25T03:25:28.257Z,0.55
2023-04-25T03:26:28.277Z,0.56
2023-04-25T03:27:28.311Z,0.55
2023-04-25T03:28:28.367Z,0.55
2023-04-25T03:29:28.417Z,0.56
2023-04-25T03:30:28.446Z,0.55
2023-04-25T03:31:28.530Z,0.54
2023-04-25T03:32:28.552Z,0.55
2023-04-25T03:33:28.573Z,0.55
2023-04-25T03:34:28.606Z,0.56
2023-04-25T03:35:28.656Z,0.55
2023-04-25T03:36:28.692Z,0.56
2023-04-25T03:37:28.738Z,0.55
2023-04-25T03:38:28.784Z,0.55
2023-04-25T03:39:28.822Z,0.55
2023-04-25T03:40:28.858Z,0.55
2023-04-25T03:41:28.926Z,0.56
2023-04-25T03:42:28.957Z,0.56
2023-04-25T03:43:29.007Z,0.56
2023-04-25T03:44:29.052Z,0.55
2023-04-25T03:45:29.098Z,0.55
2023-04-25T03:46:29.248Z,0.55
2023-04-25T03:47:29.228Z,0.55
2023-04-25T03:48:29.237Z,0.55
2023-04-25T03:49:29.274Z,0.56
2023-04-25T03:50:29.317Z,0.56
2023-04-25T03:51:29.368Z,0.56
2023-04-25T03:52:29.418Z,0.55
2023-04-25T03:53:29.496Z,0.55
2023-04-25T03:54:29.494Z,0.55
2023-04-25T03:55:29.530Z,0.54
2023-04-25T03:56:29.586Z,0.54
2023-04-25T03:57:29.657Z,0.52
2023-04-25T03:58:29.704Z,0.51
2023-04-25T03:59:29.730Z,0.52
2023-04-25T04:00:29.774Z,0.50
2023-04-25T04:01:29.818Z,0.51
2023-04-25T04:02:30.023Z,0.51
2023-04-25T04:03:30.148Z,0.52
2023-04-25T04:04:30.271Z,0.50
2023-04-25T04:05:30.054Z,0.50
2023-04-25T04:06:30.049Z,0.50
2023-04-25T04:07:30.085Z,0.50
2023-04-25T04:08:30.134Z,0.51
2023-04-25T04:09:30.180Z,0.50
2023-04-25T04:10:30.232Z,0.51
2023-04-25T04:11:30.287Z,0.51
2023-04-25T04:12:30.349Z,0.51
2023-04-25T04:13:30.438Z,0.51
2023-04-25T04:14:30.421Z,0.52
2023-04-25T04:15:30.500Z,0.52
2023-04-25T04:16:32.532Z,0.52
2023-04-25T04:17:30.566Z,0.52
2023-04-25T04:18:30.510Z,0.52
2023-04-25T04:19:30.511Z,0.52
2023-04-25T04:20:30.495Z,0.52
2023-04-25T04:21:30.476Z,0.52
2023-04-25T04:22:30.474Z,0.52
2023-04-25T04:23:30.468Z,0.53
2023-04-25T04:24:30.465Z,0.52
2023-04-25T04:25:30.459Z,0.53
2023-04-25T04:26:30.450Z,0.52
2023-04-25T04:27:30.452Z,0.52
2023-04-25T04:28:30.434Z,0.53
2023-04-25T04:29:30.451Z,0.52
2023-04-25T04:30:30.478Z,0.53
2023-04-25T04:31:30.432Z,0.51
2023-04-25T04:32:30.420Z,0.52
2023-04-25T04:33:30.398Z,0.53
2023-04-25T04:34:30.414Z,0.52
2023-04-25T04:35:30.387Z,0.53
2023-04-25T04:36:30.379Z,0.52
2023-04-25T04:37:30.405Z,0.54
2023-04-25T04:38:30.454Z,0.52
2023-04-25T04:39:30.552Z,0.53
2023-04-25T04:40:30.542Z,0.54
2023-04-25T04:41:30.587Z,0.54
2023-04-25T04:42:30.636Z,0.52
2023-04-25T04:43:30.682Z,0.52
2023-04-25T04:44:30.725Z,0.52
2023-04-25T04:45:30.794Z,0.53
2023-04-25T04:46:30.860Z,0.52
2023-04-25T04:47:30.895Z,0.53
2023-04-25T04:48:30.906Z,0.54
2023-04-25T04:49:30.959Z,0.53
2023-04-25T04:50:31.023Z,0.53
2023-04-25T04:51:31.047Z,0.53
2023-04-25T04:52:31.103Z,0.53
2023-04-25T04:53:31.154Z,0.53
2023-04-25T04:54:31.201Z,0.52
2023-04-25T04:55:31.257Z,0.53
2023-04-25T04:56:31.303Z,0.53
2023-04-25T04:57:31.350Z,0.53
2023-04-25T04:58:31.394Z,0.54
2023-04-25T04:59:31.459Z,0.54
2023-04-25T05:00:31.555Z,0.53
2023-04-25T05:01:31.571Z,0.53
2023-04-25T05:02:31.737Z,0.52
2023-04-25T05:03:31.783Z,0.52
2023-04-25T05:04:32.768Z,0.52
2023-04-25T05:05:31.739Z,0.53
2023-04-25T05:06:31.778Z,0.53
2023-04-25T05:07:31.833Z,0.53
2023-04-25T05:08:31.882Z,0.53
2023-04-25T05:09:31.936Z,0.53
2023-04-25T05:10:31.972Z,0.53
2023-04-25T05:11:32.015Z,0.53
2023-04-25T05:12:32.067Z,0.53
2023-04-25T05:13:32.110Z,0.53
2023-04-25T05:14:32.151Z,0.52
2023-04-25T05:15:32.212Z,0.53
2023-04-25T05:16:32.252Z,0.52
2023-04-25T05:17:32.749Z,0.52
2023-04-25T05:18:32.342Z,0.52
2023-04-25T05:19:32.378Z,0.53
2023-04-25T05:20:32.417Z,0.52
2023-04-25T05:21:32.507Z,0.53
2023-04-25T05:22:32.502Z,0.54
2023-04-25T05:23:33.369Z,0.53
2023-04-25T05:24:32.612Z,0.56
2023-04-25T05:25:32.622Z,0.58
2023-04-25T05:26:32.648Z,0.58
2023-04-25T05:27:32.712Z,0.59
2023-04-25T05:28:32.736Z,0.59
2023-04-25T05:29:32.757Z,0.60
2023-04-25T05:30:32.793Z,0.60
2023-04-25T05:31:32.896Z,0.60
2023-04-25T05:32:33.183Z,0.62
2023-04-25T05:33:32.933Z,0.61
2023-04-25T05:34:32.949Z,0.63
2023-04-25T05:35:33.042Z,0.62
2023-04-25T05:36:33.041Z,0.65
2023-04-25T05:37:33.209Z,0.65
2023-04-25T05:38:34.755Z,0.65
2023-04-25T05:39:33.101Z,0.68
2023-04-25T05:40:33.100Z,0.69
2023-04-25T05:41:33.084Z,0.71
2023-04-25T05:42:33.170Z,0.69
2023-04-25T05:43:33.085Z,0.71
2023-04-25T05:44:33.061Z,0.73
2023-04-25T05:45:33.064Z,0.73
2023-04-25T05:46:33.124Z,0.72
2023-04-25T05:47:33.086Z,0.73
2023-04-25T05:48:33.022Z,0.74
2023-04-25T05:49:33.055Z,0.75
2023-04-25T05:50:33.008Z,0.76
2023-04-25T05:51:32.994Z,0.76
2023-04-25T05:52:33.172Z,0.78
2023-04-25T05:53:32.988Z,0.79
2023-04-25T05:54:32.987Z,0.79
2023-04-25T05:55:33.193Z,0.81
2023-04-25T05:56:32.970Z,0.55
2023-04-25T05:57:32.982Z,0.36
2023-04-25T05:58:33.251Z,0.51
2023-04-25T05:59:32.975Z,0.50
2023-04-25T06:00:36.388Z,0.50
2023-04-25T06:01:32.949Z,0.50
2023-04-25T06:02:33.121Z,0.50
2023-04-25T06:03:33.391Z,0.54
2023-04-25T06:04:33.225Z,0.61
2023-04-25T06:05:33.172Z,0.69
2023-04-25T06:06:32.931Z,0.60
2023-04-25T06:07:33.205Z,0.57
2023-04-25T06:08:40.601Z,0.51
2023-04-25T06:09:32.893Z,0.51
2023-04-25T06:10:32.894Z,0.51
2023-04-25T06:11:32.891Z,0.53
2023-04-25T06:12:32.858Z,0.55
2023-04-25T06:13:33.198Z,0.63
2023-04-25T06:14:33.212Z,0.67
2023-04-25T06:15:32.850Z,0.71
2023-04-25T06:16:33.109Z,0.76
2023-04-25T06:17:32.867Z,0.76
2023-04-25T06:18:32.841Z,0.80
2023-04-25T06:19:33.827Z,0.79
2023-04-25T06:20:32.819Z,0.82
2023-04-25T06:21:32.821Z,0.82
2023-04-25T06:22:33.211Z,0.79
2023-04-25T06:23:32.789Z,0.85
2023-04-25T06:24:32.768Z,0.90
2023-04-25T06:25:32.764Z,0.93
2023-04-25T06:26:32.747Z,0.94
2023-04-25T06:27:32.736Z,0.97
2023-04-25T06:28:32.735Z,1.01
2023-04-25T06:29:32.728Z,1.02
2023-04-25T06:30:33.189Z,1.10
2023-04-25T06:31:32.797Z,1.11
2023-04-25T06:32:32.831Z,1.13
2023-04-25T06:33:32.840Z,1.22
2023-04-25T06:34:32.864Z,1.28
2023-04-25T06:35:32.894Z,1.41
2023-04-25T06:36:32.929Z,1.47
2023-04-25T06:37:32.979Z,1.49
2023-04-25T06:38:32.988Z,1.56
2023-04-25T06:39:32.988Z,1.60
2023-04-25T06:40:33.191Z,1.68
2023-04-25T06:41:33.021Z,1.84
2023-04-25T06:42:33.056Z,1.98
2023-04-25T06:43:33.061Z,2.19
2023-04-25T06:44:33.229Z,2.25
2023-04-25T06:45:33.111Z,2.20
2023-04-25T06:46:33.180Z,2.27
2023-04-25T06:47:33.252Z,2.23
2023-04-25T06:48:33.185Z,2.25
2023-04-25T06:49:34.203Z,2.30
2023-04-25T06:50:33.715Z,2.31
2023-04-25T06:51:33.276Z,2.29
2023-04-25T06:52:33.777Z,2.34
2023-04-25T06:53:33.549Z,2.41
2023-04-25T06:54:34.004Z,2.34
2023-04-25T06:55:33.921Z,2.30
2023-04-25T06:56:33.647Z,2.39
2023-04-25T06:57:33.672Z,2.42
2023-04-25T06:58:33.992Z,2.40
2023-04-25T06:59:33.755Z,2.40
2023-04-25T07:00:33.856Z,2.37
2023-04-25T07:01:33.715Z,2.35
2023-04-25T07:02:33.803Z,2.41
2023-04-25T07:03:33.843Z,2.40
2023-04-25T07:04:33.981Z,2.42
2023-04-25T07:05:34.235Z,2.48
2023-04-25T07:06:33.888Z,2.38
2023-04-25T07:07:34.173Z,2.37
2023-04-25T07:08:33.982Z,2.32
2023-04-25T07:09:34.187Z,2.29
2023-04-25T07:10:34.324Z,2.33
2023-04-25T07:11:34.236Z,2.30
2023-04-25T07:12:34.289Z,2.27
2023-04-25T07:13:34.238Z,2.27
2023-04-25T07:14:34.327Z,2.29
2023-04-25T07:15:34.737Z,2.30
2023-04-25T07:16:34.450Z,2.30
2023-04-25T07:17:34.435Z,2.32
2023-04-25T07:18:34.477Z,2.25
2023-04-25T07:19:34.533Z,2.28
2023-04-25T07:20:34.570Z,2.28
2023-04-25T07:21:34.636Z,2.25
2023-04-25T07:22:34.720Z,2.25
2023-04-25T07:23:34.739Z,2.25
2023-04-25T07:24:34.802Z,2.24
2023-04-25T07:25:34.862Z,2.19
2023-04-25T07:26:35.216Z,2.19
2023-04-25T07:27:35.200Z,2.15
2023-04-25T07:28:35.208Z,2.17
2023-04-25T07:29:35.323Z,2.22
2023-04-25T07:30:35.252Z,2.19
2023-04-25T07:31:35.594Z,2.16
2023-04-25T07:32:35.310Z,2.14
2023-04-25T07:33:35.320Z,2.13
2023-04-25T07:34:35.882Z,2.12
2023-04-25T07:35:35.982Z,2.09
2023-04-25T07:36:36.005Z,2.11
2023-04-25T07:37:35.818Z,1.95
2023-04-25T07:38:35.718Z,1.94
2023-04-25T07:39:35.884Z,2.08
2023-04-25T07:40:35.771Z,2.17
2023-04-25T07:41:36.598Z,2.21
2023-04-25T07:42:36.121Z,2.31
2023-04-25T07:43:36.213Z,2.33
2023-04-25T07:44:36.051Z,2.43
2023-04-25T07:45:36.576Z,2.51
2023-04-25T07:46:36.101Z,2.55
2023-04-25T07:47:36.147Z,2.59
2023-04-25T07:48:36.294Z,2.62
2023-04-25T07:49:36.586Z,2.67
2023-04-25T07:50:36.228Z,2.73
2023-04-25T07:51:36.276Z,2.79
2023-04-25T07:52:36.389Z,2.84
2023-04-25T07:53:36.246Z,2.90
2023-04-25T07:54:36.144Z,2.95
2023-04-25T07:55:36.209Z,3.05
2023-04-25T07:56:48.913Z,3.23
2023-04-25T07:57:36.267Z,3.24
2023-04-25T07:58:36.559Z,3.28
2023-04-25T07:59:36.176Z,3.36
2023-04-25T08:00:37.153Z,3.49
2023-04-25T08:01:36.176Z,3.61
2023-04-25T08:02:36.295Z,3.59
2023-04-25T08:03:36.387Z,3.64
2023-04-25T08:04:36.816Z,3.65
2023-04-25T08:05:36.335Z,3.83
2023-04-25T08:06:36.336Z,3.86
2023-04-25T08:07:36.252Z,3.90
2023-04-25T08:08:36.253Z,3.95
2023-04-25T08:09:36.145Z,4.08
2023-04-25T08:10:36.120Z,4.17
2023-04-25T08:11:36.234Z,4.34
2023-04-25T08:12:36.052Z,4.34
2023-04-25T08:13:36.644Z,4.50
2023-04-25T08:14:36.053Z,4.61
2023-04-25T08:15:36.066Z,4.77
2023-04-25T08:16:36.238Z,4.80
2023-04-25T08:17:36.040Z,4.92
2023-04-25T08:18:36.262Z,5.12
2023-04-25T08:19:36.007Z,5.04
2023-04-25T08:20:36.395Z,5.15
2023-04-25T08:21:36.012Z,5.36
2023-04-25T08:22:36.008Z,5.46
2023-04-25T08:23:36.251Z,5.66
2023-04-25T08:24:39.255Z,5.85
2023-04-25T08:25:35.973Z,5.86
2023-04-25T08:26:36.261Z,5.90
2023-04-25T08:27:35.968Z,6.01
2023-04-25T08:28:36.255Z,6.24
2023-04-25T08:29:35.978Z,6.61
2023-04-25T08:30:35.946Z,6.65
2023-04-25T08:31:35.972Z,6.76
2023-04-25T08:32:35.949Z,7.05
2023-04-25T08:33:36.265Z,6.98
2023-04-25T08:34:35.971Z,7.14
2023-04-25T08:35:35.914Z,7.38
2023-04-25T08:36:39.794Z,7.33
2023-04-25T08:37:35.942Z,7.35
2023-04-25T08:38:36.246Z,7.41
2023-04-25T08:39:35.921Z,7.54
2023-04-25T08:40:35.939Z,7.83
2023-04-25T08:41:36.042Z,8.18
2023-04-25T08:42:36.321Z,8.35
2023-04-25T08:43:37.084Z,8.49
2023-04-25T08:44:36.193Z,8.64
2023-04-25T08:45:36.305Z,8.58
2023-04-25T08:46:36.359Z,8.68
2023-04-25T08:47:36.465Z,8.73
2023-04-25T08:48:36.782Z,8.92
2023-04-25T08:49:36.478Z,9.27
2023-04-25T08:50:36.508Z,9.32
2023-04-25T08:51:36.751Z,9.56
2023-04-25T08:52:36.639Z,9.78
2023-04-25T08:53:36.814Z,10.14
2023-04-25T08:54:38.384Z,10.17
2023-04-25T08:55:36.757Z,10.22
2023-04-25T08:56:36.722Z,10.16
2023-04-25T08:57:36.788Z,10.28
2023-04-25T08:58:36.786Z,10.27
2023-04-25T08:59:39.163Z,10.25
2023-04-25T09:00:36.795Z,10.27
2023-04-25T09:01:36.889Z,10.38
2023-04-25T09:02:36.812Z,10.54
2023-04-25T09:03:36.749Z,11.06
2023-04-25T09:04:38.711Z,11.77
2023-04-25T09:05:36.675Z,10.32
2023-04-25T09:06:36.659Z,10.56
2023-04-25T09:07:36.655Z,11.03
2023-04-25T09:08:36.681Z,11.67
2023-04-25T09:09:36.655Z,12.68
2023-04-25T09:10:36.699Z,12.84
2023-04-25T09:11:36.795Z,13.35
2023-04-25T09:12:36.639Z,13.41
2023-04-25T09:13:36.611Z,13.47
2023-04-25T09:14:36.607Z,13.49
2023-04-25T09:15:36.639Z,13.51
2023-04-25T09:16:39.516Z,13.72
2023-04-25T09:17:36.709Z,13.74
2023-04-25T09:18:36.577Z,13.81
2023-04-25T09:19:40.798Z,13.90
2023-04-25T09:20:40.412Z,13.79
2023-04-25T09:21:37.284Z,13.79
2023-04-25T09:22:36.763Z,13.81
2023-04-25T09:23:36.749Z,14.02
2023-04-25T09:24:36.742Z,14.49
2023-04-25T09:25:36.741Z,14.91
2023-04-25T09:26:36.796Z,16.32
2023-04-25T09:27:36.786Z,16.45
2023-04-25T09:28:36.735Z,16.66
2023-04-25T09:29:36.831Z,16.94
2023-04-25T09:30:36.770Z,17.08
2023-04-25T09:31:36.905Z,16.78
2023-04-25T09:32:37.312Z,16.84
2023-04-25T09:33:37.340Z,16.86
2023-04-25T09:34:37.293Z,16.54
2023-04-25T09:35:37.289Z,16.13
2023-04-25T09:36:36.661Z,15.87
2023-04-25T09:37:36.655Z,16.07
2023-04-25T09:38:36.641Z,15.53
2023-04-25T09:39:36.764Z,15.27
2023-04-25T09:40:36.797Z,14.85
2023-04-25T09:41:43.179Z,14.77
2023-04-25T09:42:36.696Z,14.82
2023-04-25T09:43:36.721Z,14.71
2023-04-25T09:44:36.685Z,14.67
2023-04-25T09:45:36.780Z,14.38
2023-04-25T09:46:36.841Z,14.18
2023-04-25T09:47:36.816Z,13.97
2023-04-25T09:48:36.661Z,13.74
2023-04-25T09:49:36.673Z,13.76
2023-04-25T09:50:36.661Z,13.29
2023-04-25T09:51:36.644Z,13.00
2023-04-25T09:52:36.638Z,12.54
2023-04-25T09:53:36.646Z,12.50
2023-04-25T09:54:36.790Z,12.43
2023-04-25T09:55:36.607Z,12.56
2023-04-25T09:56:36.601Z,12.59
2023-04-25T09:57:36.598Z,12.60
2023-04-25T09:58:36.594Z,12.60
2023-04-25T09:59:36.791Z,12.40
2023-04-25T10:00:36.577Z,12.81
2023-04-25T10:01:36.614Z,12.97
2023-04-25T10:02:36.877Z,12.87
2023-04-25T10:03:36.785Z,12.59
2023-04-25T10:04:36.823Z,10.69
2023-04-25T10:05:36.737Z,2.32
2023-04-25T10:06:36.559Z,2.23
2023-04-25T10:07:36.558Z,2.42
2023-04-25T10:08:36.571Z,1.30
2023-04-25T10:09:36.580Z,1.25
2023-04-25T10:10:37.154Z,1.28
2023-04-25T10:11:36.693Z,1.14
2023-04-25T10:12:36.753Z,0.88
2023-04-25T10:13:36.805Z,0.77
2023-04-25T10:14:37.312Z,0.50
2023-04-25T10:15:39.699Z,0.58
2023-04-25T10:16:36.852Z,0.59
2023-04-25T10:17:37.366Z,0.55
2023-04-25T10:18:36.820Z,0.50
2023-04-25T10:19:37.314Z,0.47
2023-04-25T10:20:36.804Z,0.40
2023-04-25T10:21:36.821Z,0.42
2023-04-25T10:22:36.797Z,0.53
2023-04-25T10:23:36.813Z,0.63
2023-04-25T10:24:36.809Z,0.64
2023-04-25T10:25:36.780Z,0.34
2023-04-25T10:26:36.766Z,0.34
2023-04-25T10:27:36.788Z,0.34
2023-04-25T10:28:36.756Z,0.35
2023-04-25T10:29:36.843Z,0.38
2023-04-25T10:30:36.755Z,0.46
2023-04-25T10:31:36.787Z,0.67
2023-04-25T10:32:36.811Z,0.71
2023-04-25T10:33:36.844Z,0.64
2023-04-25T10:34:36.751Z,0.79
2023-04-25T10:35:36.770Z,0.98
2023-04-25T10:36:36.713Z,1.23
2023-04-25T10:37:38.292Z,1.42
2023-04-25T10:38:36.719Z,1.65
2023-04-25T10:39:36.850Z,2.22
2023-04-25T10:40:36.708Z,3.06
2023-04-25T10:41:36.710Z,3.65
2023-04-25T10:42:36.679Z,4.28
2023-04-25T10:43:36.713Z,4.78
2023-04-25T10:44:36.810Z,5.16
2023-04-25T10:45:37.413Z,5.49
2023-04-25T10:46:36.724Z,5.90
2023-04-25T10:47:36.702Z,6.19
2023-04-25T10:48:36.645Z,6.82
2023-04-25T10:49:36.848Z,7.47
2023-04-25T10:50:36.646Z,8.00
2023-04-25T10:51:54.262Z,8.34
2023-04-25T10:52:36.609Z,8.38
2023-04-25T10:53:36.873Z,8.55
2023-04-25T10:54:36.589Z,8.96
2023-04-25T10:55:36.846Z,9.95
2023-04-25T10:56:36.575Z,11.21
2023-04-25T10:57:36.561Z,12.19
2023-04-25T10:58:36.818Z,13.20
2023-04-25T10:59:36.818Z,12.86
2023-04-25T11:00:48.283Z,13.73
2023-04-25T11:01:36.686Z,13.80
2023-04-25T11:02:36.608Z,14.09
2023-04-25T11:03:36.589Z,14.64
2023-04-25T11:04:37.207Z,15.57
2023-04-25T11:05:43.851Z,18.41
2023-04-25T11:06:36.507Z,13.91
2023-04-25T11:07:36.505Z,14.64
2023-04-25T11:08:36.482Z,16.04
2023-04-25T11:09:36.859Z,18.78
2023-04-25T11:10:36.858Z,23.43
2023-04-25T11:11:36.473Z,24.33
2023-04-25T11:12:36.464Z,25.47
2023-04-25T11:13:36.826Z,26.61
2023-04-25T11:14:36.450Z,27.79
2023-04-25T11:15:36.443Z,28.86
2023-04-25T11:16:36.567Z,30.23
2023-04-25T11:17:37.186Z,30.32
2023-04-25T11:18:36.450Z,31.17
2023-04-25T11:19:36.828Z,3.94
2023-04-25T11:20:36.431Z,2.36
2023-04-25T11:21:36.478Z,1.17
2023-04-25T11:22:37.285Z,1.09
2023-04-25T11:23:36.395Z,0.81
2023-04-25T11:24:36.401Z,0.73
2023-04-25T11:25:38.450Z,1.20
2023-04-25T11:26:36.846Z,1.21
2023-04-25T11:27:36.833Z,1.36
2023-04-25T11:28:36.367Z,1.91
2023-04-25T11:29:36.373Z,3.41
2023-04-25T11:30:36.353Z,7.85
2023-04-25T11:31:36.358Z,9.19
2023-04-25T11:32:36.944Z,10.77
2023-04-25T11:33:36.321Z,11.85
2023-04-25T11:34:36.338Z,12.11
2023-04-25T11:35:36.337Z,12.78
2023-04-25T11:36:36.313Z,13.90
2023-04-25T11:37:36.295Z,15.04
2023-04-25T11:38:36.291Z,15.96
2023-04-25T11:39:36.285Z,16.76
2023-04-25T11:40:36.333Z,17.99
2023-04-25T11:41:36.450Z,19.10
2023-04-25T11:42:36.270Z,20.59
2023-04-25T11:43:36.257Z,21.43
2023-04-25T11:44:36.342Z,22.72
2023-04-25T11:45:36.291Z,23.16
2023-04-25T11:46:36.308Z,24.66
2023-04-25T11:47:36.288Z,25.24
2023-04-25T11:48:36.219Z,25.94
2023-04-25T11:49:36.343Z,28.05
2023-04-25T11:50:36.209Z,29.46
2023-04-25T11:51:36.238Z,30.62
2023-04-25T11:52:36.344Z,31.73
2023-04-25T11:53:36.297Z,32.39
2023-04-25T11:54:36.336Z,33.47
2023-04-25T11:55:36.370Z,36.86
2023-04-25T11:56:36.382Z,38.58
2023-04-25T11:57:36.936Z,37.85
2023-04-25T11:58:37.033Z,37.11
2023-04-25T11:59:36.438Z,37.60
2023-04-25T12:00:36.533Z,38.49
2023-04-25T12:01:36.646Z,38.87
2023-04-25T12:02:36.665Z,38.69
2023-04-25T12:03:37.069Z,38.82
2023-04-25T12:04:37.118Z,39.82
2023-04-25T12:05:37.567Z,40.13
2023-04-25T12:06:36.732Z,39.61
2023-04-25T12:07:36.852Z,39.07
2023-04-25T12:08:36.762Z,39.49
2023-04-25T12:09:36.833Z,39.67
2023-04-25T12:10:36.894Z,40.06
2023-04-25T12:11:37.322Z,39.09
2023-04-25T12:12:37.348Z,39.41
2023-04-25T12:13:37.093Z,39.11
2023-04-25T12:14:37.217Z,38.41
2023-04-25T12:15:37.436Z,37.85
2023-04-25T12:16:37.232Z,38.92
2023-04-25T12:17:37.329Z,27.69
2023-04-25T12:18:37.293Z,5.67
2023-04-25T12:19:37.328Z,2.53
2023-04-25T12:20:37.855Z,2.88
2023-04-25T12:21:46.978Z,3.15
2023-04-25T12:22:37.858Z,3.16
2023-04-25T12:23:38.074Z,3.17
2023-04-25T12:24:39.536Z,3.24
2023-04-25T12:25:37.854Z,3.19
2023-04-25T12:26:37.371Z,3.36
2023-04-25T12:27:37.359Z,3.67
2023-04-25T12:28:37.358Z,4.20
2023-04-25T12:29:49.505Z,4.95
2023-04-25T12:30:37.361Z,3.20
2023-04-25T12:31:37.352Z,3.22
2023-04-25T12:32:37.397Z,3.41
2023-04-25T12:33:37.323Z,3.79
2023-04-25T12:34:37.314Z,4.39
2023-04-25T12:35:37.371Z,5.12
2023-04-25T12:36:37.313Z,5.26
2023-04-25T12:37:37.300Z,5.38
2023-04-25T12:38:37.286Z,5.47
2023-04-25T12:39:37.298Z,5.57
2023-04-25T12:40:37.365Z,5.62
2023-04-25T12:41:37.271Z,5.53
2023-04-25T12:42:37.361Z,5.67
2023-04-25T12:43:37.266Z,5.91
2023-04-25T12:44:37.331Z,5.98
2023-04-25T12:45:37.342Z,6.05
2023-04-25T12:46:37.396Z,5.90
2023-04-25T12:47:37.299Z,6.02
2023-04-25T12:48:37.294Z,6.13
2023-04-25T12:49:37.857Z,6.15
2023-04-25T12:50:37.211Z,6.20
2023-04-25T12:51:37.371Z,6.24
2023-04-25T12:52:37.371Z,6.32
2023-04-25T12:53:37.194Z,6.78
2023-04-25T12:54:37.874Z,7.37
2023-04-25T12:55:37.191Z,7.76
2023-04-25T12:56:37.165Z,8.16
2023-04-25T12:57:37.385Z,8.49
2023-04-25T12:58:37.153Z,8.68
2023-04-25T12:59:37.172Z,9.18
2023-04-25T13:00:37.184Z,9.65
2023-04-25T13:01:37.486Z,9.95
2023-04-25T13:02:37.516Z,10.32
2023-04-25T13:03:37.273Z,10.24
2023-04-25T13:04:37.189Z,10.05
2023-04-25T13:05:37.373Z,10.63
2023-04-25T13:06:37.106Z,11.10
2023-04-25T13:07:37.095Z,11.38
2023-04-25T13:08:37.076Z,11.54
2023-04-25T13:09:37.064Z,11.40
2023-04-25T13:10:37.192Z,11.66
2023-04-25T13:11:37.095Z,11.74
2023-04-25T13:12:37.046Z,11.87
2023-04-25T13:13:37.039Z,11.98